Time;durP1;ratioP1;P1;durP2;ratioP2;P2;SDS_P1;SDS_P2;PMS_P1;PMS_P2;Temp;Humidity;BMP_temperature;BMP_pressure;BME280_temperature;BME280_humidity;BME280_pressure;Samples;Min_cycle;Max_cycle;Signal;HPM_P1;HPM_P2
2022/06/28 00:00:28;;;;;;;7.82;6.38;;;14.00;99.90;;;;;;5094114;28;20093;-78
2022/06/28 00:02:54;;;;;;;6.82;6.18;;;14.00;99.90;;;;;;5095219;28;20040;-78
2022/06/28 00:05:21;;;;;;;7.60;6.70;;;14.00;99.90;;;;;;5095148;28;20039;-78
2022/06/28 00:07:47;;;;;;;11.20;7.35;;;14.00;99.90;;;;;;5094993;28;20044;-78
2022/06/28 00:10:14;;;;;;;7.43;6.30;;;13.90;99.90;;;;;;5077080;28;20039;-78
2022/06/28 00:12:41;;;;;;;7.57;6.78;;;13.90;99.90;;;;;;5093884;28;20107;-78
2022/06/28 00:17:53;;;;;;;11.00;6.93;;;13.90;99.90;;;;;;5094931;28;20522;-78
2022/06/28 00:20:19;;;;;;;12.55;6.45;;;13.90;99.90;;;;;;5094742;28;20081;-78
2022/06/28 00:22:45;;;;;;;9.00;6.90;;;13.90;99.90;;;;;;5094646;28;20201;-78
2022/06/28 00:25:11;;;;;;;8.27;6.47;;;13.90;99.90;;;;;;5093661;28;20404;-77
2022/06/28 00:27:37;;;;;;;8.48;7.18;;;13.90;99.90;;;;;;5076604;28;20162;-78
2022/06/28 00:30:05;;;;;;;7.50;5.97;;;13.90;99.90;;;;;;5093083;28;20075;-78
2022/06/28 00:32:32;;;;;;;8.30;7.20;;;13.90;99.90;;;;;;5095718;28;20493;-78
2022/06/28 00:34:58;;;;;;;9.85;7.28;;;13.90;99.90;;;;;;5115184;28;20185;-78
2022/06/28 00:37:23;;;;;;;9.52;7.43;;;13.90;99.90;;;;;;5096362;28;20086;-78
2022/06/28 00:39:49;;;;;;;9.77;6.85;;;13.90;99.90;;;;;;5114943;28;20071;-78
2022/06/28 00:42:15;;;;;;;8.15;7.30;;;13.80;99.90;;;;;;5114823;28;20039;-78
2022/06/28 00:44:41;;;;;;;8.70;6.85;;;13.80;99.90;;;;;;5114919;28;20039;-78
2022/06/28 00:47:08;;;;;;;8.00;7.20;;;13.80;99.90;;;;;;5114893;28;20494;-79
2022/06/28 00:49:33;;;;;;;10.00;7.22;;;13.70;99.90;;;;;;5079931;28;20460;-78
2022/06/28 00:52:02;;;;;;;10.15;7.28;;;13.80;99.90;;;;;;5096392;28;20075;-78
2022/06/28 00:54:29;;;;;;;8.57;7.53;;;13.70;99.90;;;;;;5114648;28;20055;-78
2022/06/28 00:56:55;;;;;;;9.50;7.45;;;13.70;99.90;;;;;;5114632;28;20050;-78
2022/06/28 00:59:20;;;;;;;10.10;7.57;;;13.70;99.90;;;;;;5079436;28;20479;-79
2022/06/28 01:01:46;;;;;;;9.05;7.07;;;13.70;99.90;;;;;;5114457;28;20077;-78
2022/06/28 01:04:12;;;;;;;10.23;6.50;;;13.70;99.90;;;;;;5096108;28;20492;-78
2022/06/28 01:06:38;;;;;;;8.18;6.75;;;13.70;99.90;;;;;;5096095;28;20408;-78
2022/06/28 01:09:04;;;;;;;8.40;7.22;;;13.70;99.90;;;;;;5096073;28;20039;-78
2022/06/28 01:11:32;;;;;;;7.55;6.47;;;13.70;99.90;;;;;;5114244;28;20495;-78
2022/06/28 01:13:59;;;;;;;9.60;6.78;;;13.60;99.90;;;;;;5114276;28;20039;-78
2022/06/28 01:16:26;;;;;;;7.88;6.78;;;13.80;99.90;;;;;;5114374;28;20039;-78
2022/06/28 01:18:52;;;;;;;11.00;7.30;;;13.60;99.90;;;;;;5114225;28;20036;-79
2022/06/28 01:21:18;;;;;;;8.48;7.43;;;13.60;99.90;;;;;;5095848;28;20036;-78
2022/06/28 01:23:45;;;;;;;8.07;7.18;;;13.60;99.90;;;;;;5113989;28;20119;-78
2022/06/28 01:26:13;;;;;;;11.45;7.03;;;13.50;99.90;;;;;;5114323;28;20041;-86
2022/06/28 01:28:41;;;;;;;11.07;6.22;;;13.50;99.90;;;;;;5096154;28;20394;-86
2022/06/28 01:31:07;;;;;;;8.20;6.53;;;13.50;99.90;;;;;;5079540;28;20484;-86
2022/06/28 01:33:36;;;;;;;7.38;6.55;;;13.50;99.90;;;;;;5079768;28;20278;-86
2022/06/28 01:36:08;;;;;;;8.38;5.97;;;13.50;99.90;;;;;;5079834;28;20086;-86
2022/06/28 01:38:35;;;;;;;8.00;6.30;;;13.50;99.90;;;;;;5079247;28;20455;-87
2022/06/28 01:41:01;;;;;;;8.13;6.70;;;13.50;99.90;;;;;;5079291;28;20032;-86
2022/06/28 01:43:29;;;;;;;7.57;6.57;;;13.40;99.90;;;;;;5062850;28;20449;-86
2022/06/28 01:45:55;;;;;;;9.88;7.35;;;13.40;99.90;;;;;;5096121;28;20032;-78
2022/06/28 01:48:21;;;;;;;7.07;6.20;;;13.40;99.90;;;;;;5060684;28;20127;-78
2022/06/28 01:50:48;;;;;;;8.32;7.18;;;13.40;99.90;;;;;;5095187;28;20139;-78
2022/06/28 01:53:15;;;;;;;9.07;6.90;;;13.40;99.90;;;;;;5095305;28;20097;-78
2022/06/28 01:55:41;;;;;;;8.95;6.53;;;13.40;99.90;;;;;;5095247;28;20122;-78
2022/06/28 01:58:08;;;;;;;14.95;7.18;;;13.30;99.90;;;;;;5113339;28;20471;-78
2022/06/28 02:00:35;;;;;;;10.32;7.10;;;13.30;99.90;;;;;;5095471;28;20431;-78
2022/06/28 02:03:01;;;;;;;9.05;6.80;;;13.30;99.90;;;;;;5095448;28;20050;-78
2022/06/28 02:05:27;;;;;;;9.63;6.78;;;13.30;99.90;;;;;;5078081;28;20404;-78
2022/06/28 02:07:55;;;;;;;8.10;7.30;;;13.30;99.90;;;;;;5094806;28;20043;-78
2022/06/28 02:10:21;;;;;;;9.70;6.82;;;13.30;99.90;;;;;;5113229;28;20413;-78
2022/06/28 02:12:46;;;;;;;8.93;7.10;;;13.30;99.90;;;;;;5113139;28;20126;-78
2022/06/28 02:15:13;;;;;;;10.77;6.95;;;13.30;99.90;;;;;;5094980;28;20202;-78
2022/06/28 02:17:40;;;;;;;10.30;7.15;;;13.20;99.90;;;;;;5113400;28;20040;-78
2022/06/28 02:20:06;;;;;;;11.80;7.13;;;13.20;99.90;;;;;;5095135;28;20122;-78
2022/06/28 02:22:32;;;;;;;11.88;6.85;;;13.20;99.90;;;;;;5113138;28;20130;-78
2022/06/28 02:24:58;;;;;;;8.95;7.05;;;13.10;99.90;;;;;;5112480;28;20119;-78
2022/06/28 02:27:24;;;;;;;8.40;6.72;;;13.30;99.90;;;;;;5113146;28;20376;-77
2022/06/28 02:29:50;;;;;;;8.10;7.05;;;13.10;99.90;;;;;;5112844;28;20031;-78
2022/06/28 02:32:15;;;;;;;8.23;6.50;;;13.00;99.90;;;;;;5112966;28;20043;-78
2022/06/28 02:40:22;;;;;;;7.35;6.43;;;13.00;99.90;;;;;;5112904;28;20047;-78
2022/06/28 02:43:00;;;;;;;7.93;6.78;;;13.00;99.90;;;;;;5094873;28;20047;-78
2022/06/28 02:45:29;;;;;;;10.57;6.70;;;13.00;99.90;;;;;;5112736;28;20114;-78
2022/06/28 02:47:55;;;;;;;7.28;6.20;;;13.50;99.90;;;;;;5094432;28;20598;-79
2022/06/28 02:50:21;;;;;;;7.60;6.50;;;12.90;99.90;;;;;;5094354;28;20127;-79
2022/06/28 02:52:47;;;;;;;8.48;7.10;;;12.90;99.90;;;;;;5112857;28;20046;-78
2022/06/28 02:55:13;;;;;;;10.48;6.90;;;12.90;99.90;;;;;;5094562;28;20543;-78
2022/06/28 02:57:39;;;;;;;8.10;6.72;;;12.90;99.90;;;;;;5094896;28;20127;-78
2022/06/28 03:00:10;;;;;;;8.77;6.80;;;12.90;99.90;;;;;;5114579;28;20047;-79
2022/06/28 03:02:38;;;;;;;8.68;6.60;;;12.90;99.90;;;;;;5081684;28;20050;-78
2022/06/28 03:05:09;;;;;;;8.57;6.63;;;12.90;99.90;;;;;;5117008;28;20138;-78
2022/06/28 03:07:34;;;;;;;7.53;6.38;;;12.80;99.90;;;;;;5116597;28;20050;-78
2022/06/28 03:10:00;;;;;;;10.48;6.60;;;12.90;99.90;;;;;;5116567;28;20126;-78
2022/06/28 03:12:26;;;;;;;7.45;6.28;;;12.80;99.90;;;;;;5081286;28;20043;-78
2022/06/28 03:14:52;;;;;;;11.93;6.90;;;12.80;99.90;;;;;;5116591;28;20043;-77
2022/06/28 03:17:18;;;;;;;11.18;6.03;;;12.80;99.90;;;;;;5116416;28;20040;-78
2022/06/28 03:19:44;;;;;;;8.48;6.20;;;12.80;99.90;;;;;;5098049;28;20472;-78
2022/06/28 03:22:09;;;;;;;11.88;6.63;;;12.80;99.90;;;;;;5116267;28;20075;-78
2022/06/28 03:24:35;;;;;;;8.07;5.65;;;12.80;99.90;;;;;;5123574;28;20483;-78
2022/06/28 03:27:01;;;;;;;8.45;5.78;;;12.70;99.90;;;;;;5105973;28;20041;-77
2022/06/28 03:29:27;;;;;;;5.88;4.63;;;12.70;99.90;;;;;;5124111;28;20035;-77
2022/06/28 03:31:53;;;;;;;10.30;5.10;;;12.80;99.90;;;;;;5119265;28;20122;-78
2022/06/28 03:34:19;;;;;;;9.65;5.47;;;12.60;99.90;;;;;;5081077;28;20083;-78
2022/06/28 03:36:46;;;;;;;6.05;5.00;;;12.70;99.90;;;;;;5081256;28;20043;-78
2022/06/28 03:39:12;;;;;;;7.40;5.65;;;12.70;99.90;;;;;;5115961;28;20036;-78
2022/06/28 03:41:38;;;;;;;8.10;5.30;;;12.70;99.90;;;;;;5097794;28;20491;-78
2022/06/28 03:44:04;;;;;;;6.00;5.07;;;12.20;99.90;;;;;;5097837;28;20061;-78
2022/06/28 03:46:30;;;;;;;7.72;5.13;;;12.70;99.90;;;;;;5080835;28;20040;-78
2022/06/28 03:48:55;;;;;;;7.85;5.22;;;12.70;99.90;;;;;;5097548;28;20088;-78
2022/06/28 03:51:21;;;;;;;7.45;5.22;;;12.70;99.90;;;;;;5080700;28;20400;-78
2022/06/28 03:53:47;;;;;;;6.38;5.28;;;12.70;99.90;;;;;;5097269;28;20450;-78
2022/06/28 03:56:13;;;;;;;8.65;5.00;;;12.70;99.90;;;;;;5097296;28;20048;-78
2022/06/28 03:58:39;;;;;;;8.05;4.72;;;12.80;99.90;;;;;;5097495;28;20048;-78
2022/06/28 04:01:05;;;;;;;9.07;4.53;;;12.80;99.90;;;;;;5080456;28;20071;-78
2022/06/28 04:03:30;;;;;;;6.88;5.13;;;12.70;99.90;;;;;;5115684;28;20082;-78
2022/06/28 04:05:56;;;;;;;10.95;5.78;;;12.80;99.90;;;;;;5097388;28;20044;-78
2022/06/28 04:08:22;;;;;;;7.75;4.90;;;12.70;99.90;;;;;;5115735;28;20043;-78
2022/06/28 04:10:48;;;;;;;7.45;4.85;;;12.80;99.90;;;;;;5096574;28;20047;-78
2022/06/28 04:13:14;;;;;;;6.75;5.15;;;12.80;99.90;;;;;;5096944;28;20043;-78
2022/06/28 04:15:40;;;;;;;9.30;5.35;;;12.70;99.90;;;;;;5097373;28;20122;-78
2022/06/28 04:18:06;;;;;;;9.05;6.07;;;12.80;99.90;;;;;;5097095;28;20520;-78
2022/06/28 04:20:33;;;;;;;8.82;6.13;;;12.80;99.90;;;;;;5096866;28;20403;-78
2022/06/28 04:22:59;;;;;;;8.80;5.82;;;12.80;99.90;;;;;;5097016;28;20040;-78
2022/06/28 04:25:25;;;;;;;10.57;5.82;;;12.70;99.90;;;;;;5115211;28;20046;-78
2022/06/28 04:27:56;;;;;;;10.68;6.68;;;12.70;99.90;;;;;;5115278;28;20077;-78
2022/06/28 04:30:25;;;;;;;8.82;5.82;;;12.70;99.90;;;;;;5115164;28;20039;-78
2022/06/28 04:32:50;;;;;;;10.18;6.20;;;12.70;99.90;;;;;;5096626;28;20052;-78
2022/06/28 04:35:16;;;;;;;8.77;5.90;;;12.80;99.90;;;;;;5097190;28;20043;-87
2022/06/28 04:37:42;;;;;;;6.65;5.53;;;12.80;99.90;;;;;;5081246;28;20175;-86
2022/06/28 04:40:08;;;;;;;9.77;5.88;;;12.80;99.90;;;;;;5080900;28;20039;-86
2022/06/28 04:42:36;;;;;;;10.60;6.30;;;12.80;99.90;;;;;;5080612;28;20479;-86
2022/06/28 04:45:02;;;;;;;9.48;5.88;;;12.80;99.90;;;;;;5102483;28;20042;-86
2022/06/28 04:47:27;;;;;;;7.53;6.03;;;12.80;99.90;;;;;;5064892;28;20044;-87
2022/06/28 04:49:53;;;;;;;11.55;5.97;;;12.90;99.90;;;;;;5065146;28;20074;-86
2022/06/28 04:52:19;;;;;;;9.27;4.97;;;12.90;99.90;;;;;;5064376;28;20491;-86
2022/06/28 04:54:44;;;;;;;9.00;5.70;;;12.90;99.90;;;;;;5080508;28;20415;-86
2022/06/28 04:57:10;;;;;;;9.10;5.30;;;13.00;99.90;;;;;;5047147;28;20031;-86
2022/06/28 04:59:36;;;;;;;10.40;5.95;;;13.00;99.90;;;;;;5081035;28;20534;-86
2022/06/28 05:02:01;;;;;;;7.70;5.07;;;13.00;99.90;;;;;;5080742;28;20066;-86
2022/06/28 05:04:27;;;;;;;8.45;5.50;;;13.10;99.90;;;;;;5047532;28;20066;-86
2022/06/28 05:06:53;;;;;;;9.82;5.07;;;13.10;99.90;;;;;;5064103;28;20045;-86
2022/06/28 05:09:18;;;;;;;12.40;5.32;;;13.20;99.90;;;;;;5063746;28;20036;-87
2022/06/28 05:11:44;;;;;;;9.07;4.80;;;13.30;99.90;;;;;;5047108;28;20040;-86
2022/06/28 05:14:10;;;;;;;7.65;4.55;;;13.30;99.90;;;;;;5062977;28;20042;-87
2022/06/28 05:16:35;;;;;;;6.93;4.82;;;13.30;99.90;;;;;;5096939;28;20085;-86
2022/06/28 05:19:01;;;;;;;10.20;4.97;;;13.40;99.90;;;;;;5047115;28;20043;-86
2022/06/28 05:21:27;;;;;;;13.05;5.05;;;13.40;99.90;;;;;;5096696;28;20043;-86
2022/06/28 05:23:52;;;;;;;9.02;4.53;;;13.50;99.90;;;;;;5078642;28;20130;-78
2022/06/28 05:26:19;;;;;;;10.05;4.60;;;13.60;99.90;;;;;;5079283;28;20039;-78
2022/06/28 05:28:45;;;;;;;7.72;4.03;;;13.60;99.90;;;;;;5095803;28;20052;-78
2022/06/28 05:31:10;;;;;;;10.15;4.57;;;13.70;99.90;;;;;;5114088;28;20043;-78
2022/06/28 05:33:36;;;;;;;8.35;4.47;;;13.70;99.90;;;;;;5078855;28;20048;-78
2022/06/28 05:36:02;;;;;;;8.25;4.35;;;13.80;99.90;;;;;;5096704;28;20051;-86
2022/06/28 05:38:29;;;;;;;8.75;4.50;;;13.80;99.90;;;;;;5047365;28;20089;-87
2022/06/28 05:40:55;;;;;;;10.02;4.25;;;13.90;99.90;;;;;;5079723;28;20071;-87
2022/06/28 05:43:21;;;;;;;6.20;3.60;;;14.00;99.90;;;;;;5047041;28;20101;-87
2022/06/28 05:45:46;;;;;;;7.63;3.60;;;14.10;99.90;;;;;;5079826;28;20043;-87
2022/06/28 05:48:12;;;;;;;9.95;3.88;;;14.10;99.90;;;;;;5096269;28;20099;-86
2022/06/28 05:50:38;;;;;;;9.98;3.85;;;14.20;99.90;;;;;;5063125;28;20075;-86
2022/06/28 05:53:03;;;;;;;6.35;3.65;;;14.30;99.90;;;;;;5079664;28;20122;-86
2022/06/28 05:55:30;;;;;;;10.02;4.05;;;14.40;99.90;;;;;;5080759;28;20040;-87
2022/06/28 05:57:56;;;;;;;8.32;3.78;;;14.40;99.90;;;;;;5080167;28;20508;-86
2022/06/28 06:00:21;;;;;;;6.03;3.10;;;14.50;99.90;;;;;;5062870;28;20071;-86
2022/06/28 06:02:47;;;;;;;6.85;3.00;;;14.60;99.90;;;;;;5062329;28;20130;-86
2022/06/28 06:05:13;;;;;;;8.52;3.45;;;14.70;99.90;;;;;;5063520;28;20047;-86
2022/06/28 06:07:39;;;;;;;6.68;3.13;;;14.80;99.90;;;;;;5080091;28;20043;-87
2022/06/28 06:10:05;;;;;;;8.48;3.45;;;14.80;99.90;;;;;;5079369;28;20483;-86
2022/06/28 06:12:31;;;;;;;8.55;2.97;;;14.90;99.90;;;;;;5046078;28;20062;-87
2022/06/28 06:14:58;;;;;;;8.20;3.22;;;15.00;99.90;;;;;;5079578;28;20539;-87
2022/06/28 06:17:24;;;;;;;7.75;2.80;;;15.10;99.90;;;;;;5097034;28;20038;-86
2022/06/28 06:19:49;;;;;;;9.98;2.90;;;15.20;99.90;;;;;;5063375;28;20444;-86
2022/06/28 06:22:15;;;;;;;8.57;2.65;;;15.20;99.90;;;;;;5063416;28;20099;-87
2022/06/28 06:24:41;;;;;;;6.55;2.15;;;15.30;99.90;;;;;;5097679;28;20040;-87
2022/06/28 06:27:06;;;;;;;4.97;2.20;;;15.40;99.90;;;;;;5063956;28;20484;-87
2022/06/28 06:29:32;;;;;;;12.02;2.58;;;15.60;99.90;;;;;;5081798;28;20122;-87
2022/06/28 06:31:58;;;;;;;9.15;2.85;;;15.60;99.90;;;;;;5081105;28;20050;-86
2022/06/28 06:34:24;;;;;;;11.50;2.70;;;15.80;99.90;;;;;;5098647;28;20048;-87
2022/06/28 06:36:50;;;;;;;7.63;2.50;;;15.90;99.90;;;;;;5070983;28;20134;-87
2022/06/28 06:39:16;;;;;;;9.18;2.58;;;16.00;99.90;;;;;;5087417;28;20039;-87
2022/06/28 06:41:42;;;;;;;12.60;2.83;;;16.20;99.90;;;;;;5070580;28;20051;-78
2022/06/28 06:44:08;;;;;;;8.38;2.80;;;16.30;99.90;;;;;;5103176;28;20040;-79
2022/06/28 06:46:34;;;;;;;7.75;2.70;;;16.50;99.90;;;;;;5085573;28;20047;-78
2022/06/28 06:48:59;;;;;;;10.38;2.92;;;16.50;99.90;;;;;;5102599;28;20399;-78
2022/06/28 06:51:25;;;;;;;7.63;2.65;;;16.70;99.90;;;;;;5102198;28;20047;-78
2022/06/28 06:53:51;;;;;;;7.13;2.40;;;16.80;99.90;;;;;;5103029;28;20348;-78
2022/06/28 06:56:17;;;;;;;10.50;3.40;;;16.90;99.90;;;;;;5086316;28;20035;-78
2022/06/28 06:58:43;;;;;;;7.68;2.80;;;17.10;99.90;;;;;;5102974;28;20036;-78
2022/06/28 07:01:09;;;;;;;7.38;2.60;;;17.20;99.90;;;;;;5103801;28;20045;-86
2022/06/28 07:03:35;;;;;;;8.73;2.65;;;17.30;99.90;;;;;;5086763;28;20402;-79
2022/06/28 07:06:01;;;;;;;11.90;2.92;;;17.50;99.90;;;;;;5069628;28;20047;-85
2022/06/28 07:08:27;;;;;;;10.15;2.80;;;17.60;99.90;;;;;;5086182;28;20050;-86
2022/06/28 07:10:52;;;;;;;10.88;3.25;;;17.70;99.90;;;;;;5086167;28;20044;-86
2022/06/28 07:13:18;;;;;;;7.90;2.92;;;17.70;99.90;;;;;;5086032;28;20043;-86
2022/06/28 07:15:44;;;;;;;7.93;2.72;;;17.90;99.90;;;;;;5086466;28;20103;-87
2022/06/28 07:18:09;;;;;;;5.90;2.67;;;18.00;99.90;;;;;;5085683;28;20044;-86
2022/06/28 07:20:36;;;;;;;9.18;2.83;;;18.20;99.90;;;;;;5069770;28;20040;-78
2022/06/28 07:23:04;;;;;;;9.88;2.80;;;18.30;99.90;;;;;;5087279;28;20507;-78
2022/06/28 07:25:30;;;;;;;10.30;3.03;;;18.40;99.90;;;;;;5052762;28;20039;-78
2022/06/28 07:27:56;;;;;;;11.07;3.10;;;18.40;99.90;;;;;;5053449;28;20032;-78
2022/06/28 07:30:22;;;;;;;6.68;3.00;;;18.40;99.90;;;;;;5084555;28;20403;-78
2022/06/28 07:32:47;;;;;;;7.05;3.03;;;18.40;99.90;;;;;;5052668;28;20066;-78
2022/06/28 07:35:13;;;;;;;12.18;2.92;;;18.50;99.90;;;;;;5052841;28;20580;-78
2022/06/28 07:37:39;;;;;;;11.95;3.20;;;18.60;99.90;;;;;;5052337;28;20479;-78
2022/06/28 07:40:06;;;;;;;7.80;2.85;;;18.60;99.90;;;;;;5085372;28;20047;-78
2022/06/28 07:42:31;;;;;;;9.07;2.80;;;18.60;99.90;;;;;;5085571;28;20038;-78
2022/06/28 07:44:57;;;;;;;11.70;3.53;;;18.80;99.90;;;;;;5051826;28;20047;-78
2022/06/28 07:47:23;;;;;;;10.57;2.95;;;19.20;99.90;;;;;;5081119;28;20395;-79
2022/06/28 07:52:33;;;;;;;13.80;3.38;;;19.90;99.90;;;;;;5084117;28;20453;-78
2022/06/28 07:54:59;;;;;;;10.25;3.03;;;20.30;99.90;;;;;;5081610;28;20386;-79
2022/06/28 07:57:27;;;;;;;9.25;2.95;;;20.50;99.90;;;;;;5065103;28;20483;-78
2022/06/28 07:59:53;;;;;;;14.27;2.80;;;20.70;99.90;;;;;;5064662;28;20050;-79
2022/06/28 08:02:19;;;;;;;8.48;2.17;;;20.80;99.90;;;;;;5081266;28;20122;-79
2022/06/28 08:04:46;;;;;;;7.95;2.63;;;20.90;99.90;;;;;;5081151;28;20122;-78
2022/06/28 08:07:12;;;;;;;11.20;2.83;;;21.00;99.90;;;;;;5080534;28;20347;-79
2022/06/28 08:09:38;;;;;;;5.85;2.10;;;21.30;99.90;;;;;;5097890;28;20042;-79
2022/06/28 08:12:05;;;;;;;9.07;2.22;;;21.60;99.90;;;;;;5097549;28;20044;-79
2022/06/28 08:14:31;;;;;;;6.03;2.45;;;21.70;99.90;;;;;;5081242;28;20045;-78
2022/06/28 08:16:56;;;;;;;7.38;2.00;;;21.90;99.90;;;;;;5081313;28;20040;-78
2022/06/28 08:19:23;;;;;;;6.25;2.13;;;21.90;99.90;;;;;;5080555;28;20039;-79
2022/06/28 08:21:49;;;;;;;9.40;2.35;;;21.90;99.90;;;;;;5081073;28;20516;-79
2022/06/28 08:24:15;;;;;;;10.45;2.65;;;21.90;99.90;;;;;;5064217;28;20040;-78
2022/06/28 08:26:44;;;;;;;5.88;2.00;;;22.00;99.90;;;;;;5080345;28;20039;-79
2022/06/28 08:29:14;;;;;;;8.38;2.00;;;22.10;99.90;;;;;;5080461;28;20443;-79
2022/06/28 08:31:40;;;;;;;4.72;1.60;;;22.20;99.90;;;;;;5080784;28;20035;-79
2022/06/28 08:34:06;;;;;;;7.47;2.13;;;22.30;99.90;;;;;;5079709;28;20052;-79
2022/06/28 08:36:32;;;;;;;6.68;1.80;;;22.50;99.90;;;;;;5097360;28;20116;-78
2022/06/28 08:38:59;;;;;;;7.78;1.80;;;22.70;99.90;;;;;;5080146;28;20028;-79
2022/06/28 08:41:30;;;;;;;5.88;1.90;;;22.80;99.90;;;;;;5079640;28;20039;-79
2022/06/28 08:43:56;;;;;;;4.53;1.60;;;22.90;99.90;;;;;;5080532;28;20043;-79
2022/06/28 08:46:22;;;;;;;5.53;1.40;;;23.10;99.90;;;;;;5080099;28;20043;-78
2022/06/28 08:48:53;;;;;;;5.18;1.50;;;23.10;99.00;;;;;;5063077;28;20039;-79
2022/06/28 08:51:19;;;;;;;6.32;1.70;;;23.20;97.90;;;;;;5079508;28;20042;-79
2022/06/28 08:53:47;;;;;;;7.00;1.75;;;23.20;97.70;;;;;;5079720;28;20039;-79
2022/06/28 08:56:14;;;;;;;5.60;2.25;;;23.20;97.30;;;;;;5062411;28;20071;-78
2022/06/28 08:58:44;;;;;;;9.57;2.20;;;23.30;97.00;;;;;;5079331;28;20057;-79
2022/06/28 09:01:12;;;;;;;7.53;1.95;;;23.40;96.90;;;;;;5079378;28;20151;-79
2022/06/28 09:03:38;;;;;;;8.50;1.80;;;23.40;97.40;;;;;;5096635;28;20062;-79
2022/06/28 09:06:05;;;;;;;5.10;1.80;;;23.50;97.70;;;;;;5079339;28;20491;-79
2022/06/28 09:08:31;;;;;;;5.55;1.85;;;23.60;97.50;;;;;;5079448;28;20085;-79
2022/06/28 09:10:57;;;;;;;4.78;1.70;;;23.70;97.20;;;;;;5080020;28;20036;-79
2022/06/28 09:13:23;;;;;;;5.82;1.88;;;23.50;94.40;;;;;;5078863;28;20088;-78
2022/06/28 09:15:51;;;;;;;9.05;1.98;;;23.50;94.60;;;;;;5062609;28;20035;-79
2022/06/28 09:18:18;;;;;;;5.75;1.50;;;23.60;95.10;;;;;;5079007;28;20036;-79
2022/06/28 09:20:44;;;;;;;5.13;1.70;;;23.60;95.50;;;;;;5095782;28;20040;-79
2022/06/28 09:23:26;;;;;;;7.60;1.80;;;23.80;94.90;;;;;;5078997;28;20039;-79
2022/06/28 09:25:54;;;;;;;4.63;1.65;;;23.80;91.80;;;;;;5078717;28;20043;-79
2022/06/28 09:28:27;;;;;;;4.78;1.70;;;23.60;93.10;;;;;;5078986;28;20548;-79
2022/06/28 09:31:13;;;;;;;8.23;1.77;;;23.50;92.30;;;;;;5078997;28;20392;-79
2022/06/28 09:33:39;;;;;;;7.45;2.00;;;23.40;93.10;;;;;;5081346;28;20055;-79
2022/06/28 09:36:05;;;;;;;6.25;1.70;;;23.30;93.30;;;;;;5095552;28;20484;-79
2022/06/28 09:38:35;;;;;;;5.20;1.75;;;23.40;93.20;;;;;;5062059;28;20088;-79
2022/06/28 09:41:00;;;;;;;6.53;2.13;;;23.20;92.50;;;;;;5062509;28;20067;-79
2022/06/28 09:43:34;;;;;;;8.15;1.98;;;23.00;92.80;;;;;;5061512;28;20419;-79
2022/06/28 09:46:04;;;;;;;6.30;1.48;;;22.80;92.60;;;;;;5061458;28;20039;-79
2022/06/28 09:48:36;;;;;;;7.45;1.92;;;22.80;93.30;;;;;;5078307;28;20055;-79
2022/06/28 09:51:02;;;;;;;5.15;1.48;;;22.80;92.60;;;;;;5078526;28;20032;-79
2022/06/28 09:53:30;;;;;;;4.22;1.48;;;22.80;93.30;;;;;;5078285;28;20126;-79
2022/06/28 09:56:03;;;;;;;4.82;1.30;;;22.90;93.40;;;;;;5045728;28;20181;-79
2022/06/28 09:58:30;;;;;;;4.80;1.65;;;23.10;92.40;;;;;;5095236;28;20043;-79
2022/06/28 10:00:56;;;;;;;6.88;1.50;;;23.30;92.00;;;;;;5078448;28;20036;-78
2022/06/28 10:03:22;;;;;;;4.78;1.40;;;23.30;91.90;;;;;;5095046;28;20042;-79
2022/06/28 10:05:48;;;;;;;5.63;1.40;;;23.10;92.00;;;;;;5094824;28;20077;-79
2022/06/28 10:08:14;;;;;;;5.03;1.60;;;22.90;91.50;;;;;;5061562;28;20062;-79
2022/06/28 10:10:41;;;;;;;4.28;1.40;;;22.90;92.00;;;;;;5077442;28;20031;-79
2022/06/28 10:15:57;;;;;;;6.03;1.73;;;23.10;91.40;;;;;;5066491;28;20075;-79
2022/06/28 10:18:25;;;;;;;4.88;1.45;;;23.10;90.70;;;;;;5095273;28;20035;-79
2022/06/28 10:20:50;;;;;;;3.67;1.15;;;23.10;90.70;;;;;;5078041;28;20039;-79
2022/06/28 10:23:40;;;;;;;4.40;1.20;;;23.00;90.30;;;;;;5078075;28;20116;-77
2022/06/28 10:26:14;;;;;;;4.22;1.35;;;22.90;90.10;;;;;;5095179;28;20121;-79
2022/06/28 10:29:07;;;;;;;4.28;1.30;;;22.80;90.20;;;;;;5094772;28;20044;-79
2022/06/28 10:31:36;;;;;;;2.45;0.98;;;22.70;87.50;;;;;;5074446;28;20087;-79
2022/06/28 10:34:04;;;;;;;3.85;1.42;;;22.60;90.10;;;;;;5094161;28;20449;-79
2022/06/28 10:36:54;;;;;;;4.82;1.30;;;22.60;90.20;;;;;;5077387;28;20039;-79
2022/06/28 10:39:29;;;;;;;2.83;1.10;;;22.60;89.00;;;;;;5077796;28;20089;-79
2022/06/28 10:42:01;;;;;;;4.15;0.98;;;22.70;90.50;;;;;;5078137;28;20044;-79
2022/06/28 10:44:32;;;;;;;3.58;1.25;;;22.50;89.00;;;;;;5094676;28;20476;-78
2022/06/28 10:47:01;;;;;;;2.53;1.13;;;22.50;90.30;;;;;;5078200;28;20441;-79
2022/06/28 10:49:52;;;;;;;3.45;1.10;;;22.50;90.90;;;;;;5077954;28;21086;-78
2022/06/28 10:52:35;;;;;;;5.75;1.50;;;22.50;86.50;;;;;;5078137;28;20044;-78
2022/06/28 10:55:03;;;;;;;2.47;0.90;;;22.40;86.30;;;;;;5077620;28;20122;-78
2022/06/28 10:57:32;;;;;;;3.97;1.00;;;22.40;89.90;;;;;;5077705;28;20078;-79
2022/06/28 11:00:00;;;;;;;3.55;1.20;;;22.40;89.00;;;;;;5077531;28;20043;-79
2022/06/28 11:02:51;;;;;;;4.13;1.42;;;22.40;87.70;;;;;;5094582;28;20042;-78
2022/06/28 11:05:26;;;;;;;2.28;0.85;;;22.50;88.30;;;;;;5094344;28;20048;-78
2022/06/28 11:08:02;;;;;;;2.83;1.15;;;22.50;87.20;;;;;;5094141;28;20036;-79
2022/06/28 11:10:28;;;;;;;;;;;22.60;87.20;;;;;;5094658;28;20142;-79
2022/06/28 11:12:53;;;;;;;3.50;1.00;;;22.70;89.00;;;;;;5094198;28;19925;-79
2022/06/28 11:15:35;;;;;;;2.22;1.10;;;22.80;90.50;;;;;;5060776;28;20040;-78
2022/06/28 11:18:02;;;;;;;3.92;1.40;;;22.90;88.20;;;;;;5094097;28;20043;-78
2022/06/28 11:20:30;;;;;;;5.45;1.40;;;23.00;89.10;;;;;;5061016;28;20048;-78
2022/06/28 11:22:56;;;;;;;2.80;0.95;;;22.90;85.00;;;;;;5097362;28;20556;-78
2022/06/28 11:25:23;;;;;;;3.28;1.10;;;22.90;86.30;;;;;;5097685;28;20630;-78
2022/06/28 11:27:57;;;;;;;3.40;1.30;;;22.80;86.10;;;;;;5064510;28;20075;-79
2022/06/28 11:30:27;;;;;;;6.88;1.30;;;22.80;84.70;;;;;;5080867;28;20043;-77
2022/06/28 11:32:55;;;;;;;4.30;1.33;;;22.80;85.70;;;;;;5080591;28;20058;-79
2022/06/28 11:35:27;;;;;;;2.33;0.98;;;22.80;87.20;;;;;;5081082;28;20039;-77
2022/06/28 11:37:59;;;;;;;3.17;0.90;;;23.00;87.50;;;;;;5080979;28;20040;-79
2022/06/28 11:40:40;;;;;;;3.63;1.10;;;22.90;88.10;;;;;;5097960;28;20176;-77
2022/06/28 11:43:11;;;;;;;4.15;1.23;;;23.10;86.00;;;;;;5097442;28;20070;-76
2022/06/28 11:45:42;;;;;;;3.60;1.30;;;23.20;85.60;;;;;;5080786;28;20453;-77
2022/06/28 11:48:17;;;;;;;4.15;1.30;;;23.30;85.70;;;;;;5097484;28;20128;-77
2022/06/28 11:50:44;;;;;;;3.28;1.20;;;23.50;84.50;;;;;;5064327;28;20046;-77
2022/06/28 11:53:11;;;;;;;5.07;1.25;;;23.60;84.00;;;;;;5097746;28;20027;-80
2022/06/28 11:55:39;;;;;;;3.80;1.13;;;23.60;83.70;;;;;;5080818;28;20036;-77
2022/06/28 11:58:12;;;;;;;3.38;0.98;;;23.60;83.40;;;;;;5080467;28;20042;-78
2022/06/28 12:00:37;;;;;;;4.90;1.17;;;23.60;81.00;;;;;;5080199;28;20514;-77
2022/06/28 12:03:07;;;;;;;5.57;1.70;;;23.60;81.70;;;;;;5080209;28;20071;-77
2022/06/28 12:05:34;;;;;;;4.43;1.13;;;23.70;80.70;;;;;;5063559;28;20077;-77
2022/06/28 12:08:02;;;;;;;3.53;1.08;;;23.80;79.80;;;;;;5063505;28;20039;-77
2022/06/28 12:10:31;;;;;;;6.22;1.10;;;23.80;80.80;;;;;;5047574;28;20087;-77
2022/06/28 12:13:10;;;;;;;4.55;1.10;;;23.80;80.10;;;;;;5097350;28;20035;-77
2022/06/28 12:15:36;;;;;;;7.97;1.42;;;23.70;78.40;;;;;;5080412;28;20082;-79
2022/06/28 12:18:05;;;;;;;3.67;1.35;;;23.60;79.00;;;;;;5097232;28;20399;-77
2022/06/28 12:20:32;;;;;;;6.80;1.63;;;23.70;78.80;;;;;;5080331;28;20512;-79
2022/06/28 12:23:05;;;;;;;4.55;1.20;;;23.80;76.60;;;;;;5080319;28;20039;-79
2022/06/28 12:25:32;;;;;;;3.80;1.02;;;23.90;77.00;;;;;;5080157;28;20387;-77
2022/06/28 12:27:57;;;;;;;3.60;1.30;;;24.10;75.00;;;;;;5079712;28;20370;-78
2022/06/28 12:30:25;;;;;;;6.18;1.77;;;24.20;76.80;;;;;;5080221;28;20044;-78
2022/06/28 12:32:52;;;;;;;5.15;1.00;;;24.50;75.90;;;;;;5096066;28;20088;-78
2022/06/28 12:35:20;;;;;;;3.90;1.50;;;24.80;77.60;;;;;;5096783;28;20432;-78
2022/06/28 12:37:46;;;;;;;4.78;1.00;;;25.00;76.40;;;;;;5079640;28;20471;-78
2022/06/28 12:40:12;;;;;;;6.72;1.75;;;25.30;78.20;;;;;;5096553;28;20043;-78
2022/06/28 12:42:38;;;;;;;6.45;1.73;;;25.70;78.20;;;;;;5079557;28;20092;-78
2022/06/28 12:45:05;;;;;;;6.35;1.40;;;25.90;77.70;;;;;;5046163;28;20036;-78
2022/06/28 12:47:36;;;;;;;5.50;1.40;;;26.10;75.80;;;;;;5062708;28;20061;-78
2022/06/28 12:50:05;;;;;;;4.28;1.30;;;26.30;74.60;;;;;;5096366;28;20031;-78
2022/06/28 12:52:33;;;;;;;6.82;1.23;;;26.60;74.00;;;;;;5096238;28;20574;-78
2022/06/28 12:54:59;;;;;;;2.95;1.00;;;26.90;72.70;;;;;;5063217;28;20115;-78
2022/06/28 12:57:25;;;;;;;3.95;1.20;;;27.10;71.20;;;;;;5062778;28;20074;-78
2022/06/28 12:59:52;;;;;;;7.18;1.50;;;27.40;70.80;;;;;;5096205;28;20035;-78